Latest Weather Observations for Fitzroy Crossing

IDW60801

Issued at 12:32 pm WST Friday 29 May 2015 (issued every 30 minutes, with the page automatically refreshed every 10 minutes)

About weather observations | Map of weather stations | Latest weather observations for WA | Other Formats
Station Details ID: 003093 Name: FITZROY CROSSING AERO Lat: -18.18 Lon: 125.56 Height: 114.5 m
Data from the previous 72 hours. | See also: Recent months at Fitzroy Crossing
Date/Time
WST
Temp
°C
App
Temp
°C
Dew
Point
Rel
Hum
%
Delta-T
°C
Wind Press
QNH
hPa
Press
MSL
hPa
Rain
since 9 am
mm
Dir
 
Spd
km/h
Gust
km/h
Spd
kts
Gust
kts
29/12:30pm 35.4 32.7 11.7 23 14.1 NNE 17 24 9 13 1012.8 1012.3 0.0
29/12:00pm 35.2 33.4 12.2 25 13.8 NNE 13 20 7 11 1013.4 1012.9 0.0
29/11:30am 34.5 33.5 13.3 27 12.9 NNE 11 19 6 10 1014.0 1013.4 0.0
29/11:00am 33.0 32.3 13.1 30 12.0 NNE 9 15 5 8 1014.6 1014.0 0.0
29/10:30am 32.0 30.5 13.2 31 11.3 NE 13 17 7 9 1014.9 1014.3 0.0
29/10:00am 31.3 30.9 14.0 35 10.5 NE 9 13 5 7 1015.3 1014.7 0.0
29/09:30am 29.8 29.9 14.0 38 9.5 SE 6 9 3 5 1015.7 1015.1 0.0
29/09:00am 27.8 27.5 13.3 40 8.6 SSE 7 11 4 6 1015.9 1015.3 0.0
29/08:30am 26.3 25.7 13.4 45 7.6 SSE 9 11 5 6 1016.0 1015.4 0.0
29/08:00am 24.4 23.2 12.7 48 6.8 SE 11 13 6 7 1015.9 1015.3 0.0
29/07:30am 22.6 20.9 12.3 52 5.9 S 13 17 7 9 1015.5 1014.9 0.0
29/07:00am 19.4 17.6 9.6 53 5.2 SSW 9 13 5 7 1015.1 1014.5 0.0
29/06:30am 16.9 16.3 7.3 53 4.8 CALM 0 2 0 1 1014.6 1014.0 0.0
29/06:00am 16.8 16.1 6.9 52 4.9 CALM 0 0 0 0 1014.3 1013.7 0.0
29/05:30am 16.9 15.4 6.7 51 5.1 W 4 7 2 4 1014.0 1013.4 0.0
29/05:00am 17.4 15.5 6.9 50 5.2 SSE 6 7 3 4 1013.7 1013.2 0.0
29/04:30am 18.4 17.8 7.2 48 5.7 CALM 0 0 0 0 1013.5 1013.0 0.0
29/04:00am 19.2 17.6 7.9 48 5.8 WSW 6 9 3 5 1013.3 1012.8 0.0
29/03:30am 19.2 17.3 7.6 47 6.0 WSW 7 9 4 5 1013.2 1012.7 0.0
29/03:00am 19.5 17.7 7.9 47 6.0 WSW 7 7 4 4 1013.2 1012.7 0.0
29/02:30am 19.2 17.5 7.6 47 6.0 W 6 7 3 4 1013.4 1012.9 0.0
29/02:00am 18.6 17.9 6.8 46 5.9 CALM 0 0 0 0 1013.9 1013.3 0.0
29/01:30am 19.7 18.3 7.4 45 6.3 NNE 4 7 2 4 1014.2 1013.6 0.0
29/01:00am 19.4 16.1 6.5 43 6.5 ENE 13 15 7 8 1014.5 1013.9 0.0
29/12:30am 20.7 20.1 7.3 42 6.9 CALM 0 0 0 0 1014.4 1013.8 0.0
29/12:00am 20.8 18.9 6.7 40 7.2 SE 6 7 3 4 1014.4 1013.8 0.0
 
Date/Time
WST
Temp
°C
App
Temp
°C
Dew
Point
Rel
Hum
%
Delta-T
°C
Wind Press
QNH
hPa
Press
MSL
hPa
Rain
since 9 am
mm
Dir
 
Spd
km/h
Gust
km/h
Spd
kts
Gust
kts
28/11:30pm 20.9 20.1 6.4 39 7.3 CALM 0 0 0 0 1014.3 1013.7 0.0
28/11:00pm 21.6 20.8 6.7 38 7.6 CALM 0 0 0 0 1014.5 1013.9 0.0
28/10:30pm 21.8 21.0 6.5 37 7.8 CALM 0 0 0 0 1014.5 1013.9 0.0
28/10:00pm 21.4 20.3 5.3 35 8.0 CALM 0 0 0 0 1014.7 1014.1 0.0
28/09:30pm 25.2 23.4 7.8 33 9.3 SSW 7 9 4 5 1014.7 1014.1 0.0
28/09:00pm 25.3 22.7 7.9 33 9.3 S 11 13 6 7 1014.6 1014.0 0.0
28/08:30pm 26.1 23.6 8.1 32 9.7 SSW 11 13 6 7 1014.6 1014.0 0.0
28/08:00pm 26.2 23.6 7.7 31 9.9 SSW 11 15 6 8 1014.4 1013.8 0.0
28/07:30pm 27.1 24.6 8.0 30 10.3 SW 11 11 6 6 1014.1 1013.5 0.0
28/07:00pm 27.0 24.7 7.5 29 10.5 SSW 9 11 5 6 1013.7 1013.2 0.0
28/06:30pm 27.7 25.6 6.5 26 11.2 ESE 7 9 4 5 1013.5 1013.0 0.0
28/06:00pm 29.4 27.4 7.3 25 12.0 E 7 9 4 5 1013.1 1012.6 0.0
28/05:30pm 30.2 28.1 6.8 23 12.6 E 7 9 4 5 1012.7 1012.2 0.0
28/05:00pm 32.3 30.9 7.2 21 13.8 E 4 11 2 6 1012.3 1011.8 0.0
28/04:30pm 34.3 33.1 8.1 20 14.7 ENE 4 9 2 5 1011.9 1011.4 0.0
28/04:00pm 35.4 34.0 9.0 20 15.1 NNW 6 11 3 6 1011.7 1011.2 0.0
28/03:30pm 35.1 32.7 8.8 20 15.0 N 11 17 6 9 1011.6 1011.1 0.0
28/03:00pm 35.4 33.5 9.0 20 15.1 N 9 13 5 7 1011.6 1011.1 0.0
28/02:30pm 35.4 32.5 9.7 21 14.9 E 15 20 8 11 1011.6 1011.1 0.0
28/02:00pm 35.3 33.6 9.7 21 14.8 SSE 9 17 5 9 1011.6 1011.1 0.0
28/01:30pm 35.3 33.4 10.4 22 14.6 ENE 11 20 6 11 1011.8 1011.3 0.0
28/01:00pm 35.1 33.5 10.2 22 14.5 NNW 9 20 5 11 1012.1 1011.6 0.0
28/12:30pm 34.9 34.6 11.3 24 14.0 SSW 4 11 2 6 1012.5 1012.0 0.0
28/12:00pm 34.3 33.8 12.0 25 13.3 NW 6 9 3 5 1013.1 1012.6 0.0
28/11:30am 33.0 32.9 12.1 28 12.4 SSE 4 7 2 4 1013.7 1013.2 0.0
28/11:00am 31.8 31.5 11.6 29 11.9 W 4 9 2 5 1014.3 1013.7 0.0
28/10:30am 30.9 30.5 12.3 32 11.0 SSE 6 9 3 5 1014.9 1014.3 0.0
28/10:00am 29.5 29.0 12.0 34 10.2 S 6 9 3 5 1015.2 1014.6 0.0
28/09:30am 27.6 27.6 11.2 36 9.4 S 2 7 1 4 1015.5 1014.9 0.0
28/09:00am 25.9 24.9 10.9 39 8.5 SSW 7 11 4 6 1015.6 1015.0 0.0
28/08:30am 24.3 22.4 10.6 42 7.6 SW 11 15 6 8 1015.7 1015.1 0.0
28/08:00am 23.2 20.9 10.3 44 7.1 S 13 15 7 8 1015.6 1015.0 0.0
28/07:30am 21.7 20.0 9.9 47 6.4 SSW 9 11 5 6 1015.3 1014.7 0.0
28/07:00am 19.1 17.8 7.8 48 5.8 WSW 4 9 2 5 1014.9 1014.3 0.0
28/06:30am 17.8 17.0 6.7 48 5.5 CALM 0 0 0 0 1014.6 1014.0 0.0
28/06:00am 17.2 15.9 5.8 47 5.6 WSW 2 6 1 3 1014.1 1013.5 0.0
28/05:30am 18.6 16.5 6.8 46 5.9 SW 7 9 4 5 1013.7 1013.2 0.0
28/05:00am 19.4 16.7 7.5 46 6.1 SSW 11 13 6 7 1013.6 1013.1 0.0
28/04:30am 20.4 17.2 8.4 46 6.3 S 15 19 8 10 1013.3 1012.8 0.0
28/04:00am 18.7 17.1 6.5 45 6.1 WSW 4 11 2 6 1013.0 1012.5 0.0
28/03:30am 19.8 17.9 7.5 45 6.3 NW 7 9 4 5 1012.9 1012.4 0.0
28/03:00am 18.9 16.4 6.4 44 6.3 NW 9 11 5 6 1013.0 1012.5 0.0
28/02:30am 19.6 17.6 7.0 44 6.4 WSW 7 7 4 4 1013.1 1012.6 0.0
28/02:00am 20.0 19.3 7.1 43 6.6 CALM 0 0 0 0 1013.0 1012.5 0.0
28/01:30am 19.8 19.1 6.9 43 6.6 CALM 0 6 0 3 1013.3 1012.8 0.0
28/01:00am 19.9 17.0 6.6 42 6.7 ENE 11 13 6 7 1013.4 1012.9 0.0
28/12:30am 20.7 17.5 7.0 41 7.0 ENE 13 19 7 10 1013.5 1013.0 0.0
28/12:00am 20.3 17.7 5.9 39 7.2 ESE 9 13 5 7 1013.4 1012.9 0.0
 
Date/Time
WST
Temp
°C
App
Temp
°C
Dew
Point
Rel
Hum
%
Delta-T
°C
Wind Press
QNH
hPa
Press
MSL
hPa
Rain
since 9 am
mm
Dir
 
Spd
km/h
Gust
km/h
Spd
kts
Gust
kts
27/11:30pm 20.0 17.6 5.3 38 7.3 W 7 11 4 6 1013.4 1012.9 0.0
27/11:00pm 21.6 18.7 6.3 37 7.8 N 11 13 6 7 1013.7 1013.2 0.0
27/10:30pm 21.4 19.3 5.7 36 7.9 NNE 6 7 3 4 1013.7 1013.2 0.0
27/10:00pm 21.6 20.6 5.5 35 8.1 CALM 0 0 0 0 1013.5 1013.0 0.0
27/09:30pm 23.2 22.3 6.0 33 8.8 CALM 0 0 0 0 1013.6 1013.1 0.0
27/09:00pm 25.2 23.2 6.9 31 9.6 S 7 9 4 5 1013.6 1013.1 0.0
27/08:30pm 24.6 22.0 5.9 30 9.6 S 9 9 5 5 1013.7 1013.2 0.0
27/08:00pm 26.8 24.4 6.8 28 10.6 SSW 9 11 5 6 1013.7 1013.2 0.0
27/07:30pm 27.0 25.0 6.9 28 10.7 SSW 7 9 4 5 1013.5 1013.0 0.0
27/07:00pm 26.1 25.0 5.1 26 10.7 CALM 0 0 0 0 1013.3 1012.8 0.0
27/06:30pm 27.0 25.8 4.7 24 11.4 CALM 0 0 0 0 1013.0 1012.5 0.0
27/06:00pm 28.7 26.2 4.9 22 12.3 ESE 7 9 4 5 1012.6 1012.1 0.0
27/05:30pm 30.2 27.3 4.8 20 13.2 ESE 9 9 5 5 1012.3 1011.8 0.0
27/05:00pm 32.6 30.2 5.2 18 14.6 E 7 9 4 5 1012.0 1011.5 0.0
27/04:30pm 34.3 32.2 5.8 17 15.5 NE 6 9 3 5 1011.8 1011.3 0.0
27/04:00pm 34.6 32.4 6.0 17 15.6 NNE 7 15 4 8 1011.7 1011.2 0.0
27/03:30pm 35.8 33.8 7.0 17 16.0 N 7 11 4 6 1011.5 1011.0 0.0
27/03:00pm 35.6 33.7 6.8 17 16.0 N 6 11 3 6 1011.5 1011.0 0.0
27/02:30pm 35.9 33.5 7.0 17 16.1 NE 9 17 5 9 1011.5 1011.0 0.0
27/02:00pm 35.8 33.2 7.8 18 15.8 NNE 11 17 6 9 1011.6 1011.1 0.0
27/01:30pm 35.7 33.5 7.7 18 15.8 ENE 9 17 5 9 1011.8 1011.3 0.0
27/01:00pm 35.3 32.0 8.2 19 15.3 N 15 20 8 11 1012.1 1011.6 0.0
27/12:30pm 34.7 32.2 8.4 20 14.9 N 11 20 6 11 1012.5 1012.0 0.0
27/12:00pm 34.5 31.8 9.0 21 14.6 NNE 13 20 7 11 1013.0 1012.5 0.0
27/11:30am 34.5 32.0 9.7 22 14.3 NE 13 24 7 13 1013.6 1013.1 0.0
27/11:00am 33.4 30.8 9.4 23 13.7 NNE 13 22 7 12 1014.4 1013.8 0.0
27/10:30am 32.7 30.7 10.1 25 13.0 NE 11 17 6 9 1015.0 1014.4 0.0
27/10:00am 31.7 30.3 11.0 28 12.0 NNE 9 15 5 8 1015.5 1014.9 0.0
27/09:30am 30.3 29.0 11.3 31 11.0 ENE 9 15 5 8 1016.1 1015.5 0.0
27/09:00am 27.6 26.0 10.3 34 9.7 E 9 13 5 7 1016.4 1015.8 0.0
27/08:30am 25.5 24.2 9.3 36 8.9 E 6 7 3 4 1016.5 1015.9 0.0
27/08:00am 23.0 20.5 8.3 39 7.8 ENE 11 15 6 8 1016.5 1015.9 0.0
27/07:30am 20.9 18.7 7.9 43 6.8 E 9 11 5 6 1016.2 1015.6 0.0
27/07:00am 18.7 17.8 6.2 44 6.2 CALM 0 0 0 0 1015.7 1015.1 0.0
27/06:30am 15.8 14.4 3.6 44 5.6 CALM 0 0 0 0 1015.5 1014.9 0.0
27/06:00am 15.3 13.8 2.8 43 5.6 CALM 0 0 0 0 1015.2 1014.6 0.0
27/05:30am 15.3 13.8 2.8 43 5.7 CALM 0 0 0 0 1015.0 1014.4 0.0
27/05:00am 15.1 12.1 2.0 41 5.8 NE 7 9 4 5 1014.7 1014.1 0.0
27/04:30am 15.2 12.2 1.7 40 6.0 ENE 7 9 4 5 1014.5 1013.9 0.0
27/04:00am 15.8 14.1 1.9 39 6.2 CALM 0 0 0 0 1014.5 1013.9 0.0
27/03:30am 15.8 14.0 1.2 37 6.4 CALM 0 0 0 0 1014.7 1014.1 0.0
27/03:00am 17.9 14.7 3.0 37 6.9 W 9 9 5 5 1014.8 1014.2 0.0
27/02:30am 17.8 14.6 3.3 38 6.8 W 9 11 5 6 1014.9 1014.3 0.0
27/02:00am 15.3 11.8 1.1 38 6.2 W 9 9 5 5 1015.0 1014.4 0.0
27/01:30am 16.6 13.5 1.5 36 6.7 NNW 7 9 4 5 1015.1 1014.5 0.0
27/01:00am 16.9 13.0 1.4 35 6.9 ENE 11 13 6 7 1015.5 1014.9 0.0
27/12:30am 17.4 15.6 1.4 34 7.2 CALM 0 0 0 0 1015.6 1015.0 0.0
27/12:00am 17.8 15.6 1.3 33 7.4 NW 2 7 1 4 1015.9 1015.3 0.0
 
Date/Time
WST
Temp
°C
App
Temp
°C
Dew
Point
Rel
Hum
%
Delta-T
°C
Wind Press
QNH
hPa
Press
MSL
hPa
Rain
since 9 am
mm
Dir
 
Spd
km/h
Gust
km/h
Spd
kts
Gust
kts
26/11:30pm 18.0 14.4 0.6 31 7.7 NNW 9 11 5 6 1016.0 1015.4 0.0
26/11:00pm 19.9 16.1 1.8 30 8.3 N 11 13 6 7 1016.3 1015.7 0.0
26/10:30pm 19.9 16.9 1.8 30 8.3 NNW 7 9 4 5 1016.5 1015.9 0.0
26/10:00pm 19.8 17.3 1.3 29 8.4 NNW 4 7 2 4 1016.8 1016.2 0.0
26/09:30pm 19.5 17.5 0.0 27 8.6 CALM 0 0 0 0 1016.8 1016.2 0.0
26/09:00pm 21.4 19.5 0.6 25 9.4 CALM 0 6 0 3 1016.7 1016.1 0.0
26/08:30pm 22.9 19.2 0.1 22 10.4 SSE 9 11 5 6 1016.6 1016.0 0.0
26/08:00pm 24.2 20.6 0.5 21 11.0 SSW 9 9 5 5 1016.5 1015.9 0.0
26/07:30pm 25.4 21.3 0.1 19 11.8 SW 11 11 6 6 1016.4 1015.8 0.0
26/07:00pm 26.6 23.3 0.4 18 12.3 SSW 7 9 4 5 1016.0 1015.4 0.0
26/06:30pm 27.0 23.7 -0.1 17 12.7 SSW 7 9 4 5 1015.8 1015.2 0.0
26/06:00pm 29.2 26.0 0.8 16 13.7 S 7 7 4 4 1015.2 1014.6 0.0
26/05:30pm 29.2 26.1 -0.1 15 14.0 S 6 7 3 4 1014.9 1014.3 0.0
26/05:00pm 30.4 27.3 -0.1 14 14.6 SSE 6 7 3 4 1014.5 1013.9 0.0
26/04:30pm 32.3 29.2 0.4 13 15.7 SSE 6 7 3 4 1014.3 1013.7 0.0
26/04:00pm 32.8 29.1 -0.3 12 16.1 ESE 9 11 5 6 1014.1 1013.5 0.0
26/03:30pm 33.6 30.0 0.3 12 16.5 ESE 9 15 5 8 1014.0 1013.4 0.0
26/03:00pm 34.0 30.8 0.6 12 16.6 NE 7 13 4 7 1014.1 1013.5 0.0
26/02:30pm 34.0 30.0 0.6 12 16.6 NE 11 17 6 9 1014.0 1013.4 0.0
26/02:00pm 34.7 30.4 1.1 12 16.9 E 13 24 7 13 1014.2 1013.6 0.0
26/01:30pm 35.0 31.3 2.5 13 16.8 NE 11 20 6 11 1014.4 1013.8 0.0
26/01:00pm 34.0 30.4 2.8 14 16.1 NNE 11 19 6 10 1014.9 1014.3 0.0

Other Formats:

Comma delimited format used in spreadsheet applications
http://www.bom.gov.au/fwo/IDW60801/IDW60801.94206.axf

JavaScript Object Notation format (JSON) in row-major order
http://www.bom.gov.au/fwo/IDW60801/IDW60801.94206.json